Government of Jersey

Home Log in

Channel Islands Terminal Aerodrome Forecasts (TAFs)

Jersey Airport - EGJJ

EGJJ 230804Z 2309/2318 11005KT 9999 FEW035 PROB30 TEMPO 2309/2311 3000 BR BKN005 BECMG 2312/2314 05011KT=

Guernsey Airport - EGJB

EGJB 230804Z 2309/2318 05008KT 9999 FEW007 SCT035 PROB40 TEMPO 2309/2311 4000 BR BKN005=

Alderney Airport - EGJA

EGJA 230804Z 2309/2318 07004KT 9999 FEW009 SCT035 PROB40 TEMPO 2309/2313 4000 BR BKN005=